sensor_id;sensor_type;location;lat;lon;timestamp;P1;durP1;ratioP1;P2;durP2;ratioP2
13327;SDS011;6733;51.044;3.746;2023-11-19T00:01:23;9.90;;;4.53;;
13327;SDS011;6733;51.044;3.746;2023-11-19T00:03:49;16.20;;;4.37;;
13327;SDS011;6733;51.044;3.746;2023-11-19T00:06:15;17.00;;;4.40;;
13327;SDS011;6733;51.044;3.746;2023-11-19T00:08:42;17.53;;;4.70;;
13327;SDS011;6733;51.044;3.746;2023-11-19T00:11:11;17.30;;;4.70;;
13327;SDS011;6733;51.044;3.746;2023-11-19T00:13:41;19.60;;;4.23;;
13327;SDS011;6733;51.044;3.746;2023-11-19T00:16:08;16.03;;;4.87;;
13327;SDS011;6733;51.044;3.746;2023-11-19T00:18:35;17.90;;;4.40;;
13327;SDS011;6733;51.044;3.746;2023-11-19T00:21:02;15.07;;;4.93;;
13327;SDS011;6733;51.044;3.746;2023-11-19T00:23:28;17.70;;;5.03;;
13327;SDS011;6733;51.044;3.746;2023-11-19T00:25:54;22.03;;;5.50;;
13327;SDS011;6733;51.044;3.746;2023-11-19T00:28:20;19.57;;;5.60;;
13327;SDS011;6733;51.044;3.746;2023-11-19T00:30:46;19.87;;;6.50;;
13327;SDS011;6733;51.044;3.746;2023-11-19T00:33:12;24.13;;;6.23;;
13327;SDS011;6733;51.044;3.746;2023-11-19T00:35:38;21.03;;;6.23;;
13327;SDS011;6733;51.044;3.746;2023-11-19T00:38:05;22.60;;;6.07;;
13327;SDS011;6733;51.044;3.746;2023-11-19T00:40:31;26.97;;;5.93;;
13327;SDS011;6733;51.044;3.746;2023-11-19T00:42:57;21.20;;;6.70;;
13327;SDS011;6733;51.044;3.746;2023-11-19T00:45:23;16.87;;;5.13;;
13327;SDS011;6733;51.044;3.746;2023-11-19T00:47:49;18.70;;;4.93;;
13327;SDS011;6733;51.044;3.746;2023-11-19T00:50:16;18.20;;;5.37;;
13327;SDS011;6733;51.044;3.746;2023-11-19T00:52:43;16.90;;;5.63;;
13327;SDS011;6733;51.044;3.746;2023-11-19T00:55:09;21.00;;;5.70;;
13327;SDS011;6733;51.044;3.746;2023-11-19T00:57:35;18.47;;;6.07;;
13327;SDS011;6733;51.044;3.746;2023-11-19T01:00:02;15.83;;;5.63;;
13327;SDS011;6733;51.044;3.746;2023-11-19T01:02:44;19.90;;;6.33;;
13327;SDS011;6733;51.044;3.746;2023-11-19T01:05:11;21.00;;;6.07;;
13327;SDS011;6733;51.044;3.746;2023-11-19T01:07:39;18.60;;;5.70;;
13327;SDS011;6733;51.044;3.746;2023-11-19T01:10:06;25.77;;;5.80;;
13327;SDS011;6733;51.044;3.746;2023-11-19T01:12:34;24.33;;;7.03;;
13327;SDS011;6733;51.044;3.746;2023-11-19T01:15:00;26.00;;;6.43;;
13327;SDS011;6733;51.044;3.746;2023-11-19T01:17:26;22.90;;;6.53;;
13327;SDS011;6733;51.044;3.746;2023-11-19T01:19:52;31.00;;;6.97;;
13327;SDS011;6733;51.044;3.746;2023-11-19T01:22:18;23.97;;;6.70;;
13327;SDS011;6733;51.044;3.746;2023-11-19T01:24:45;25.57;;;7.00;;
13327;SDS011;6733;51.044;3.746;2023-11-19T01:27:11;30.80;;;7.17;;
13327;SDS011;6733;51.044;3.746;2023-11-19T01:29:37;26.17;;;6.83;;
13327;SDS011;6733;51.044;3.746;2023-11-19T01:32:05;23.17;;;6.27;;
13327;SDS011;6733;51.044;3.746;2023-11-19T01:34:31;26.07;;;6.27;;
13327;SDS011;6733;51.044;3.746;2023-11-19T01:36:57;23.53;;;6.70;;
13327;SDS011;6733;51.044;3.746;2023-11-19T01:39:24;33.00;;;7.70;;
13327;SDS011;6733;51.044;3.746;2023-11-19T01:41:50;27.37;;;7.57;;
13327;SDS011;6733;51.044;3.746;2023-11-19T01:44:16;30.17;;;7.73;;
13327;SDS011;6733;51.044;3.746;2023-11-19T01:46:44;29.07;;;7.30;;
13327;SDS011;6733;51.044;3.746;2023-11-19T01:49:13;27.37;;;7.37;;
13327;SDS011;6733;51.044;3.746;2023-11-19T01:51:41;22.23;;;6.30;;
13327;SDS011;6733;51.044;3.746;2023-11-19T01:54:07;25.03;;;6.93;;
13327;SDS011;6733;51.044;3.746;2023-11-19T01:56:34;22.40;;;6.57;;
13327;SDS011;6733;51.044;3.746;2023-11-19T01:59:02;26.17;;;6.90;;
13327;SDS011;6733;51.044;3.746;2023-11-19T02:01:29;24.00;;;7.23;;
13327;SDS011;6733;51.044;3.746;2023-11-19T02:03:55;26.40;;;6.80;;
13327;SDS011;6733;51.044;3.746;2023-11-19T02:06:23;28.17;;;7.37;;
13327;SDS011;6733;51.044;3.746;2023-11-19T02:08:51;31.70;;;7.70;;
13327;SDS011;6733;51.044;3.746;2023-11-19T02:11:17;30.30;;;7.83;;
13327;SDS011;6733;51.044;3.746;2023-11-19T02:13:43;29.90;;;7.50;;
13327;SDS011;6733;51.044;3.746;2023-11-19T02:16:10;30.23;;;7.90;;
13327;SDS011;6733;51.044;3.746;2023-11-19T02:18:36;28.60;;;6.80;;
13327;SDS011;6733;51.044;3.746;2023-11-19T02:21:02;29.67;;;7.40;;
13327;SDS011;6733;51.044;3.746;2023-11-19T02:23:30;30.17;;;7.77;;
13327;SDS011;6733;51.044;3.746;2023-11-19T02:26:00;27.03;;;7.57;;
13327;SDS011;6733;51.044;3.746;2023-11-19T02:28:27;38.37;;;7.70;;
13327;SDS011;6733;51.044;3.746;2023-11-19T02:30:54;26.53;;;7.97;;
13327;SDS011;6733;51.044;3.746;2023-11-19T02:33:20;30.00;;;8.00;;
13327;SDS011;6733;51.044;3.746;2023-11-19T02:36:14;29.00;;;7.93;;
13327;SDS011;6733;51.044;3.746;2023-11-19T02:39:10;26.60;;;7.83;;
13327;SDS011;6733;51.044;3.746;2023-11-19T02:42:06;28.03;;;6.90;;
13327;SDS011;6733;51.044;3.746;2023-11-19T02:45:00;33.30;;;7.93;;
13327;SDS011;6733;51.044;3.746;2023-11-19T02:47:55;30.27;;;7.60;;
13327;SDS011;6733;51.044;3.746;2023-11-19T02:50:50;31.83;;;7.93;;
13327;SDS011;6733;51.044;3.746;2023-11-19T02:53:46;28.57;;;8.37;;
13327;SDS011;6733;51.044;3.746;2023-11-19T02:56:42;33.63;;;8.17;;
13327;SDS011;6733;51.044;3.746;2023-11-19T02:59:38;27.83;;;7.77;;
13327;SDS011;6733;51.044;3.746;2023-11-19T03:02:07;36.17;;;8.70;;
13327;SDS011;6733;51.044;3.746;2023-11-19T03:04:37;29.37;;;8.23;;
13327;SDS011;6733;51.044;3.746;2023-11-19T03:07:08;34.37;;;8.50;;
13327;SDS011;6733;51.044;3.746;2023-11-19T03:09:34;31.63;;;8.23;;
13327;SDS011;6733;51.044;3.746;2023-11-19T03:12:01;29.90;;;7.43;;
13327;SDS011;6733;51.044;3.746;2023-11-19T03:14:27;36.30;;;8.13;;
13327;SDS011;6733;51.044;3.746;2023-11-19T03:16:54;32.87;;;8.27;;
13327;SDS011;6733;51.044;3.746;2023-11-19T03:19:20;32.70;;;8.23;;
13327;SDS011;6733;51.044;3.746;2023-11-19T03:21:46;34.00;;;8.83;;
13327;SDS011;6733;51.044;3.746;2023-11-19T03:24:13;31.77;;;7.10;;
13327;SDS011;6733;51.044;3.746;2023-11-19T03:26:41;35.37;;;8.77;;
13327;SDS011;6733;51.044;3.746;2023-11-19T03:29:08;27.17;;;8.10;;
13327;SDS011;6733;51.044;3.746;2023-11-19T03:31:34;34.93;;;7.70;;
13327;SDS011;6733;51.044;3.746;2023-11-19T03:34:00;27.07;;;7.77;;
13327;SDS011;6733;51.044;3.746;2023-11-19T03:36:31;26.83;;;7.40;;
13327;SDS011;6733;51.044;3.746;2023-11-19T03:38:58;35.70;;;8.43;;
13327;SDS011;6733;51.044;3.746;2023-11-19T03:41:24;28.03;;;7.23;;
13327;SDS011;6733;51.044;3.746;2023-11-19T03:43:50;33.47;;;8.17;;
13327;SDS011;6733;51.044;3.746;2023-11-19T03:46:20;33.47;;;8.00;;
13327;SDS011;6733;51.044;3.746;2023-11-19T03:48:47;30.93;;;8.17;;
13327;SDS011;6733;51.044;3.746;2023-11-19T03:51:14;31.37;;;8.23;;
13327;SDS011;6733;51.044;3.746;2023-11-19T03:53:45;27.80;;;7.97;;
13327;SDS011;6733;51.044;3.746;2023-11-19T03:56:11;33.23;;;8.03;;
13327;SDS011;6733;51.044;3.746;2023-11-19T03:58:37;30.63;;;8.13;;
13327;SDS011;6733;51.044;3.746;2023-11-19T04:01:05;31.63;;;8.40;;
13327;SDS011;6733;51.044;3.746;2023-11-19T04:03:31;32.93;;;8.73;;
13327;SDS011;6733;51.044;3.746;2023-11-19T04:05:57;36.07;;;9.20;;
13327;SDS011;6733;51.044;3.746;2023-11-19T04:08:24;35.87;;;8.20;;
13327;SDS011;6733;51.044;3.746;2023-11-19T04:10:50;28.40;;;7.73;;
13327;SDS011;6733;51.044;3.746;2023-11-19T04:13:16;30.00;;;8.73;;
13327;SDS011;6733;51.044;3.746;2023-11-19T04:15:43;30.33;;;7.63;;
13327;SDS011;6733;51.044;3.746;2023-11-19T04:18:09;33.97;;;8.53;;
13327;SDS011;6733;51.044;3.746;2023-11-19T04:20:35;34.17;;;8.57;;
13327;SDS011;6733;51.044;3.746;2023-11-19T04:23:02;33.57;;;8.57;;
13327;SDS011;6733;51.044;3.746;2023-11-19T04:25:28;36.03;;;8.63;;
13327;SDS011;6733;51.044;3.746;2023-11-19T04:27:54;37.97;;;8.33;;
13327;SDS011;6733;51.044;3.746;2023-11-19T04:30:20;34.27;;;8.03;;
13327;SDS011;6733;51.044;3.746;2023-11-19T04:32:47;35.10;;;8.80;;
13327;SDS011;6733;51.044;3.746;2023-11-19T04:35:14;35.20;;;8.23;;
13327;SDS011;6733;51.044;3.746;2023-11-19T04:37:41;36.17;;;8.07;;
13327;SDS011;6733;51.044;3.746;2023-11-19T04:40:07;29.87;;;8.30;;
13327;SDS011;6733;51.044;3.746;2023-11-19T04:42:35;29.90;;;9.10;;
13327;SDS011;6733;51.044;3.746;2023-11-19T04:45:01;32.53;;;8.07;;
13327;SDS011;6733;51.044;3.746;2023-11-19T04:47:27;30.53;;;8.83;;
13327;SDS011;6733;51.044;3.746;2023-11-19T04:49:54;36.80;;;8.53;;
13327;SDS011;6733;51.044;3.746;2023-11-19T04:52:20;29.60;;;8.37;;
13327;SDS011;6733;51.044;3.746;2023-11-19T04:54:46;33.83;;;8.37;;
13327;SDS011;6733;51.044;3.746;2023-11-19T04:57:13;28.57;;;7.20;;
13327;SDS011;6733;51.044;3.746;2023-11-19T04:59:40;35.43;;;8.87;;
13327;SDS011;6733;51.044;3.746;2023-11-19T05:02:07;37.70;;;8.47;;
13327;SDS011;6733;51.044;3.746;2023-11-19T05:04:34;38.60;;;9.30;;
13327;SDS011;6733;51.044;3.746;2023-11-19T05:07:00;33.73;;;8.70;;
13327;SDS011;6733;51.044;3.746;2023-11-19T05:09:27;26.10;;;7.93;;
13327;SDS011;6733;51.044;3.746;2023-11-19T05:11:53;32.90;;;8.70;;
13327;SDS011;6733;51.044;3.746;2023-11-19T05:14:19;32.43;;;8.40;;
13327;SDS011;6733;51.044;3.746;2023-11-19T05:16:47;33.20;;;8.10;;
13327;SDS011;6733;51.044;3.746;2023-11-19T05:19:13;31.87;;;7.83;;
13327;SDS011;6733;51.044;3.746;2023-11-19T05:21:41;33.87;;;7.97;;
13327;SDS011;6733;51.044;3.746;2023-11-19T05:24:09;35.57;;;8.87;;
13327;SDS011;6733;51.044;3.746;2023-11-19T05:26:35;39.67;;;8.53;;
13327;SDS011;6733;51.044;3.746;2023-11-19T05:29:01;36.93;;;9.03;;
13327;SDS011;6733;51.044;3.746;2023-11-19T05:31:27;33.13;;;8.03;;
13327;SDS011;6733;51.044;3.746;2023-11-19T05:33:53;33.67;;;7.93;;
13327;SDS011;6733;51.044;3.746;2023-11-19T05:36:19;39.07;;;8.90;;
13327;SDS011;6733;51.044;3.746;2023-11-19T05:38:45;32.03;;;8.37;;
13327;SDS011;6733;51.044;3.746;2023-11-19T05:41:12;36.77;;;8.63;;
13327;SDS011;6733;51.044;3.746;2023-11-19T05:43:38;38.20;;;8.87;;
13327;SDS011;6733;51.044;3.746;2023-11-19T05:46:06;37.90;;;8.87;;
13327;SDS011;6733;51.044;3.746;2023-11-19T05:48:32;29.37;;;8.87;;
13327;SDS011;6733;51.044;3.746;2023-11-19T05:50:58;36.43;;;8.57;;
13327;SDS011;6733;51.044;3.746;2023-11-19T05:53:25;41.03;;;9.93;;
13327;SDS011;6733;51.044;3.746;2023-11-19T05:55:51;37.93;;;9.10;;
13327;SDS011;6733;51.044;3.746;2023-11-19T05:58:24;31.07;;;8.47;;
13327;SDS011;6733;51.044;3.746;2023-11-19T06:00:52;25.97;;;9.50;;
13327;SDS011;6733;51.044;3.746;2023-11-19T06:03:18;33.57;;;8.67;;
13327;SDS011;6733;51.044;3.746;2023-11-19T06:05:45;35.97;;;8.73;;
13327;SDS011;6733;51.044;3.746;2023-11-19T06:08:12;29.87;;;8.33;;
13327;SDS011;6733;51.044;3.746;2023-11-19T06:10:40;39.20;;;8.63;;
13327;SDS011;6733;51.044;3.746;2023-11-19T06:13:06;39.90;;;8.27;;
13327;SDS011;6733;51.044;3.746;2023-11-19T06:15:35;32.67;;;7.90;;
13327;SDS011;6733;51.044;3.746;2023-11-19T06:18:02;35.57;;;9.13;;
13327;SDS011;6733;51.044;3.746;2023-11-19T06:20:29;33.90;;;9.27;;
13327;SDS011;6733;51.044;3.746;2023-11-19T06:22:57;25.73;;;7.87;;
13327;SDS011;6733;51.044;3.746;2023-11-19T06:25:23;34.93;;;9.13;;
13327;SDS011;6733;51.044;3.746;2023-11-19T06:27:50;32.30;;;7.67;;
13327;SDS011;6733;51.044;3.746;2023-11-19T06:30:17;35.83;;;8.17;;
13327;SDS011;6733;51.044;3.746;2023-11-19T06:32:44;32.93;;;9.20;;
13327;SDS011;6733;51.044;3.746;2023-11-19T06:35:11;31.60;;;9.13;;
13327;SDS011;6733;51.044;3.746;2023-11-19T06:37:40;43.53;;;9.30;;
13327;SDS011;6733;51.044;3.746;2023-11-19T06:40:07;34.27;;;8.57;;
13327;SDS011;6733;51.044;3.746;2023-11-19T06:42:35;36.57;;;9.10;;
13327;SDS011;6733;51.044;3.746;2023-11-19T06:45:01;33.43;;;8.97;;
13327;SDS011;6733;51.044;3.746;2023-11-19T06:47:29;35.03;;;8.33;;
13327;SDS011;6733;51.044;3.746;2023-11-19T06:49:55;32.77;;;8.67;;
13327;SDS011;6733;51.044;3.746;2023-11-19T06:52:22;37.33;;;8.67;;
13327;SDS011;6733;51.044;3.746;2023-11-19T06:54:48;32.10;;;8.93;;
13327;SDS011;6733;51.044;3.746;2023-11-19T06:57:14;35.67;;;9.17;;
13327;SDS011;6733;51.044;3.746;2023-11-19T06:59:40;27.07;;;8.03;;
13327;SDS011;6733;51.044;3.746;2023-11-19T07:02:08;37.07;;;8.73;;
13327;SDS011;6733;51.044;3.746;2023-11-19T07:04:34;33.63;;;8.10;;
13327;SDS011;6733;51.044;3.746;2023-11-19T07:07:00;33.43;;;7.97;;
13327;SDS011;6733;51.044;3.746;2023-11-19T07:09:27;32.10;;;8.93;;
13327;SDS011;6733;51.044;3.746;2023-11-19T07:11:53;34.17;;;8.13;;
13327;SDS011;6733;51.044;3.746;2023-11-19T07:14:19;38.93;;;9.63;;
13327;SDS011;6733;51.044;3.746;2023-11-19T07:16:45;35.07;;;8.57;;
13327;SDS011;6733;51.044;3.746;2023-11-19T07:19:12;36.93;;;9.90;;
13327;SDS011;6733;51.044;3.746;2023-11-19T07:21:41;35.73;;;9.13;;
13327;SDS011;6733;51.044;3.746;2023-11-19T07:24:10;34.33;;;8.87;;
13327;SDS011;6733;51.044;3.746;2023-11-19T07:26:45;38.47;;;9.63;;
13327;SDS011;6733;51.044;3.746;2023-11-19T07:29:13;40.03;;;9.90;;
13327;SDS011;6733;51.044;3.746;2023-11-19T07:31:40;40.20;;;9.50;;
13327;SDS011;6733;51.044;3.746;2023-11-19T07:34:06;32.43;;;8.03;;
13327;SDS011;6733;51.044;3.746;2023-11-19T07:36:34;41.33;;;9.47;;
13327;SDS011;6733;51.044;3.746;2023-11-19T07:39:01;33.07;;;7.83;;
13327;SDS011;6733;51.044;3.746;2023-11-19T07:41:28;33.23;;;8.60;;
13327;SDS011;6733;51.044;3.746;2023-11-19T07:43:54;31.87;;;9.07;;
13327;SDS011;6733;51.044;3.746;2023-11-19T07:46:20;33.80;;;8.17;;
13327;SDS011;6733;51.044;3.746;2023-11-19T07:48:46;33.23;;;9.57;;
13327;SDS011;6733;51.044;3.746;2023-11-19T07:51:13;34.83;;;9.70;;
13327;SDS011;6733;51.044;3.746;2023-11-19T07:53:40;29.87;;;8.30;;
13327;SDS011;6733;51.044;3.746;2023-11-19T07:56:07;36.03;;;8.77;;
13327;SDS011;6733;51.044;3.746;2023-11-19T07:58:34;34.43;;;9.03;;
13327;SDS011;6733;51.044;3.746;2023-11-19T08:01:00;45.87;;;9.47;;
13327;SDS011;6733;51.044;3.746;2023-11-19T08:03:27;38.73;;;8.30;;
13327;SDS011;6733;51.044;3.746;2023-11-19T08:05:55;37.70;;;8.83;;
13327;SDS011;6733;51.044;3.746;2023-11-19T08:08:22;34.20;;;9.23;;
13327;SDS011;6733;51.044;3.746;2023-11-19T08:10:48;37.13;;;9.27;;
13327;SDS011;6733;51.044;3.746;2023-11-19T08:13:19;34.93;;;9.27;;
13327;SDS011;6733;51.044;3.746;2023-11-19T08:15:45;36.23;;;8.70;;
13327;SDS011;6733;51.044;3.746;2023-11-19T08:18:12;39.80;;;9.43;;
13327;SDS011;6733;51.044;3.746;2023-11-19T08:20:39;40.57;;;9.00;;
13327;SDS011;6733;51.044;3.746;2023-11-19T08:23:05;28.43;;;7.50;;
13327;SDS011;6733;51.044;3.746;2023-11-19T08:25:31;33.17;;;8.07;;
13327;SDS011;6733;51.044;3.746;2023-11-19T08:27:59;37.23;;;8.63;;
13327;SDS011;6733;51.044;3.746;2023-11-19T08:30:26;39.00;;;9.40;;
13327;SDS011;6733;51.044;3.746;2023-11-19T08:32:52;39.70;;;9.67;;
13327;SDS011;6733;51.044;3.746;2023-11-19T08:35:18;32.43;;;8.90;;
13327;SDS011;6733;51.044;3.746;2023-11-19T08:37:45;39.53;;;8.63;;
13327;SDS011;6733;51.044;3.746;2023-11-19T08:40:11;31.10;;;8.30;;
13327;SDS011;6733;51.044;3.746;2023-11-19T08:42:40;33.17;;;7.77;;
13327;SDS011;6733;51.044;3.746;2023-11-19T08:45:07;32.40;;;8.50;;
13327;SDS011;6733;51.044;3.746;2023-11-19T08:47:36;34.00;;;8.60;;
13327;SDS011;6733;51.044;3.746;2023-11-19T08:50:06;34.63;;;9.03;;
13327;SDS011;6733;51.044;3.746;2023-11-19T08:52:32;30.33;;;8.70;;
13327;SDS011;6733;51.044;3.746;2023-11-19T08:54:58;29.83;;;7.67;;
13327;SDS011;6733;51.044;3.746;2023-11-19T08:57:24;32.00;;;9.13;;
13327;SDS011;6733;51.044;3.746;2023-11-19T09:00:14;32.93;;;8.30;;
13327;SDS011;6733;51.044;3.746;2023-11-19T09:02:40;34.17;;;9.30;;
13327;SDS011;6733;51.044;3.746;2023-11-19T09:05:06;35.00;;;9.07;;
13327;SDS011;6733;51.044;3.746;2023-11-19T09:07:33;32.47;;;8.23;;
13327;SDS011;6733;51.044;3.746;2023-11-19T09:09:59;31.00;;;8.57;;
13327;SDS011;6733;51.044;3.746;2023-11-19T09:12:25;29.23;;;8.40;;
13327;SDS011;6733;51.044;3.746;2023-11-19T09:14:51;37.50;;;8.57;;
13327;SDS011;6733;51.044;3.746;2023-11-19T09:17:18;25.50;;;7.23;;
13327;SDS011;6733;51.044;3.746;2023-11-19T09:19:44;30.97;;;8.00;;
13327;SDS011;6733;51.044;3.746;2023-11-19T09:22:11;33.23;;;8.40;;
13327;SDS011;6733;51.044;3.746;2023-11-19T09:24:37;28.77;;;7.70;;
13327;SDS011;6733;51.044;3.746;2023-11-19T09:27:03;30.90;;;8.60;;
13327;SDS011;6733;51.044;3.746;2023-11-19T09:29:33;30.43;;;7.70;;
13327;SDS011;6733;51.044;3.746;2023-11-19T09:31:59;31.77;;;7.60;;
13327;SDS011;6733;51.044;3.746;2023-11-19T09:34:26;26.50;;;7.43;;
13327;SDS011;6733;51.044;3.746;2023-11-19T09:36:52;29.40;;;7.53;;
13327;SDS011;6733;51.044;3.746;2023-11-19T09:39:18;23.90;;;7.17;;
13327;SDS011;6733;51.044;3.746;2023-11-19T09:41:46;25.87;;;7.27;;
13327;SDS011;6733;51.044;3.746;2023-11-19T09:44:12;26.60;;;7.83;;
13327;SDS011;6733;51.044;3.746;2023-11-19T09:46:40;26.00;;;7.03;;
13327;SDS011;6733;51.044;3.746;2023-11-19T09:49:08;24.33;;;6.93;;
13327;SDS011;6733;51.044;3.746;2023-11-19T09:51:35;27.97;;;6.63;;
13327;SDS011;6733;51.044;3.746;2023-11-19T09:54:02;24.70;;;7.53;;
13327;SDS011;6733;51.044;3.746;2023-11-19T09:56:31;30.47;;;7.33;;
13327;SDS011;6733;51.044;3.746;2023-11-19T09:58:58;34.57;;;7.73;;
13327;SDS011;6733;51.044;3.746;2023-11-19T10:01:25;26.80;;;7.40;;
13327;SDS011;6733;51.044;3.746;2023-11-19T10:03:51;20.43;;;7.00;;
13327;SDS011;6733;51.044;3.746;2023-11-19T10:06:21;29.27;;;7.17;;
13327;SDS011;6733;51.044;3.746;2023-11-19T10:08:48;23.23;;;6.70;;
13327;SDS011;6733;51.044;3.746;2023-11-19T10:11:14;20.97;;;6.43;;
13327;SDS011;6733;51.044;3.746;2023-11-19T10:13:41;23.57;;;7.27;;
13327;SDS011;6733;51.044;3.746;2023-11-19T10:16:14;26.87;;;7.77;;
13327;SDS011;6733;51.044;3.746;2023-11-19T10:18:47;24.63;;;7.17;;
13327;SDS011;6733;51.044;3.746;2023-11-19T10:21:18;24.67;;;6.90;;
13327;SDS011;6733;51.044;3.746;2023-11-19T10:23:51;22.60;;;6.93;;
13327;SDS011;6733;51.044;3.746;2023-11-19T10:26:21;23.33;;;6.77;;
13327;SDS011;6733;51.044;3.746;2023-11-19T10:28:48;22.97;;;6.30;;
13327;SDS011;6733;51.044;3.746;2023-11-19T10:31:15;23.53;;;6.60;;
13327;SDS011;6733;51.044;3.746;2023-11-19T10:33:42;24.90;;;6.60;;
13327;SDS011;6733;51.044;3.746;2023-11-19T10:36:11;25.10;;;8.37;;
13327;SDS011;6733;51.044;3.746;2023-11-19T10:38:38;26.37;;;7.23;;
13327;SDS011;6733;51.044;3.746;2023-11-19T10:41:04;20.43;;;7.33;;
13327;SDS011;6733;51.044;3.746;2023-11-19T10:43:42;26.47;;;7.47;;
13327;SDS011;6733;51.044;3.746;2023-11-19T10:46:13;24.00;;;6.97;;
13327;SDS011;6733;51.044;3.746;2023-11-19T10:48:40;21.10;;;6.87;;
13327;SDS011;6733;51.044;3.746;2023-11-19T10:51:06;34.60;;;7.80;;
13327;SDS011;6733;51.044;3.746;2023-11-19T10:53:36;25.83;;;7.50;;
13327;SDS011;6733;51.044;3.746;2023-11-19T10:56:04;28.47;;;8.27;;
13327;SDS011;6733;51.044;3.746;2023-11-19T10:58:36;30.27;;;7.20;;
13327;SDS011;6733;51.044;3.746;2023-11-19T11:01:13;26.13;;;7.00;;
13327;SDS011;6733;51.044;3.746;2023-11-19T11:03:46;25.20;;;7.17;;
13327;SDS011;6733;51.044;3.746;2023-11-19T11:06:13;21.50;;;7.30;;
13327;SDS011;6733;51.044;3.746;2023-11-19T11:08:39;20.47;;;6.47;;
13327;SDS011;6733;51.044;3.746;2023-11-19T11:11:07;20.13;;;6.97;;
13327;SDS011;6733;51.044;3.746;2023-11-19T11:13:35;25.57;;;7.07;;
13327;SDS011;6733;51.044;3.746;2023-11-19T11:16:05;25.37;;;6.73;;
13327;SDS011;6733;51.044;3.746;2023-11-19T11:18:33;22.77;;;7.13;;
13327;SDS011;6733;51.044;3.746;2023-11-19T11:21:04;22.77;;;7.27;;
13327;SDS011;6733;51.044;3.746;2023-11-19T11:23:56;23.17;;;6.73;;
13327;SDS011;6733;51.044;3.746;2023-11-19T11:29:26;23.60;;;6.73;;
13327;SDS011;6733;51.044;3.746;2023-11-19T11:32:18;22.83;;;6.70;;
13327;SDS011;6733;51.044;3.746;2023-11-19T11:37:56;25.17;;;6.63;;
13327;SDS011;6733;51.044;3.746;2023-11-19T11:40:28;22.17;;;6.97;;
13327;SDS011;6733;51.044;3.746;2023-11-19T11:42:54;22.43;;;6.57;;
13327;SDS011;6733;51.044;3.746;2023-11-19T11:45:37;22.43;;;7.30;;
13327;SDS011;6733;51.044;3.746;2023-11-19T11:48:07;21.50;;;6.77;;
13327;SDS011;6733;51.044;3.746;2023-11-19T11:50:47;23.67;;;6.70;;
13327;SDS011;6733;51.044;3.746;2023-11-19T11:53:18;22.13;;;7.17;;
13327;SDS011;6733;51.044;3.746;2023-11-19T11:58:21;20.23;;;6.93;;
13327;SDS011;6733;51.044;3.746;2023-11-19T12:00:58;24.50;;;7.00;;
13327;SDS011;6733;51.044;3.746;2023-11-19T12:03:27;26.70;;;7.60;;
13327;SDS011;6733;51.044;3.746;2023-11-19T12:05:55;24.83;;;7.37;;
13327;SDS011;6733;51.044;3.746;2023-11-19T12:08:24;22.10;;;7.20;;
13327;SDS011;6733;51.044;3.746;2023-11-19T12:10:53;21.93;;;7.43;;
13327;SDS011;6733;51.044;3.746;2023-11-19T12:13:23;20.93;;;6.50;;
13327;SDS011;6733;51.044;3.746;2023-11-19T12:18:32;24.00;;;7.47;;
13327;SDS011;6733;51.044;3.746;2023-11-19T12:20:58;24.93;;;7.13;;
13327;SDS011;6733;51.044;3.746;2023-11-19T12:23:28;24.60;;;7.13;;
13327;SDS011;6733;51.044;3.746;2023-11-19T12:25:55;21.63;;;6.60;;
13327;SDS011;6733;51.044;3.746;2023-11-19T12:28:23;23.30;;;6.37;;
13327;SDS011;6733;51.044;3.746;2023-11-19T12:30:52;18.00;;;6.00;;
13327;SDS011;6733;51.044;3.746;2023-11-19T12:33:21;18.53;;;6.13;;
13327;SDS011;6733;51.044;3.746;2023-11-19T12:35:48;19.83;;;5.60;;
13327;SDS011;6733;51.044;3.746;2023-11-19T12:38:23;21.47;;;5.83;;
13327;SDS011;6733;51.044;3.746;2023-11-19T12:41:06;21.13;;;6.67;;
13327;SDS011;6733;51.044;3.746;2023-11-19T12:43:34;24.33;;;6.40;;
13327;SDS011;6733;51.044;3.746;2023-11-19T12:46:01;21.40;;;6.53;;
13327;SDS011;6733;51.044;3.746;2023-11-19T12:48:27;21.50;;;7.30;;
13327;SDS011;6733;51.044;3.746;2023-11-19T12:50:57;25.23;;;6.47;;
13327;SDS011;6733;51.044;3.746;2023-11-19T12:53:25;22.53;;;6.27;;
13327;SDS011;6733;51.044;3.746;2023-11-19T12:55:53;19.37;;;6.10;;
13327;SDS011;6733;51.044;3.746;2023-11-19T12:58:34;23.90;;;7.03;;
13327;SDS011;6733;51.044;3.746;2023-11-19T13:01:05;20.07;;;6.23;;
13327;SDS011;6733;51.044;3.746;2023-11-19T13:03:33;18.50;;;5.27;;
13327;SDS011;6733;51.044;3.746;2023-11-19T13:06:10;27.07;;;7.33;;
13327;SDS011;6733;51.044;3.746;2023-11-19T13:08:38;18.10;;;6.07;;
13327;SDS011;6733;51.044;3.746;2023-11-19T13:11:05;27.97;;;6.67;;
13327;SDS011;6733;51.044;3.746;2023-11-19T13:13:52;24.87;;;6.40;;
13327;SDS011;6733;51.044;3.746;2023-11-19T13:16:35;24.43;;;6.67;;
13327;SDS011;6733;51.044;3.746;2023-11-19T13:19:02;22.13;;;6.60;;
13327;SDS011;6733;51.044;3.746;2023-11-19T13:21:29;20.13;;;5.97;;
13327;SDS011;6733;51.044;3.746;2023-11-19T13:23:55;25.90;;;6.97;;
13327;SDS011;6733;51.044;3.746;2023-11-19T13:26:22;21.77;;;7.07;;
13327;SDS011;6733;51.044;3.746;2023-11-19T13:28:48;26.77;;;7.40;;
13327;SDS011;6733;51.044;3.746;2023-11-19T13:31:14;23.07;;;7.53;;
13327;SDS011;6733;51.044;3.746;2023-11-19T13:33:41;28.10;;;7.10;;
13327;SDS011;6733;51.044;3.746;2023-11-19T13:36:07;30.57;;;7.50;;
13327;SDS011;6733;51.044;3.746;2023-11-19T13:38:34;23.90;;;6.77;;
13327;SDS011;6733;51.044;3.746;2023-11-19T13:41:02;26.70;;;7.33;;
13327;SDS011;6733;51.044;3.746;2023-11-19T13:43:34;29.87;;;7.27;;
13327;SDS011;6733;51.044;3.746;2023-11-19T13:46:00;25.97;;;8.63;;
13327;SDS011;6733;51.044;3.746;2023-11-19T13:48:26;29.67;;;7.93;;
13327;SDS011;6733;51.044;3.746;2023-11-19T13:50:54;28.70;;;7.57;;
13327;SDS011;6733;51.044;3.746;2023-11-19T13:53:21;28.70;;;7.97;;
13327;SDS011;6733;51.044;3.746;2023-11-19T13:55:49;28.73;;;6.97;;
13327;SDS011;6733;51.044;3.746;2023-11-19T13:58:15;24.97;;;7.30;;
13327;SDS011;6733;51.044;3.746;2023-11-19T14:00:42;30.83;;;8.07;;
13327;SDS011;6733;51.044;3.746;2023-11-19T14:03:09;26.03;;;6.40;;
13327;SDS011;6733;51.044;3.746;2023-11-19T14:05:38;29.93;;;7.23;;
13327;SDS011;6733;51.044;3.746;2023-11-19T14:08:06;28.47;;;7.80;;
13327;SDS011;6733;51.044;3.746;2023-11-19T14:10:41;25.47;;;7.83;;
13327;SDS011;6733;51.044;3.746;2023-11-19T14:13:08;31.03;;;7.93;;
13327;SDS011;6733;51.044;3.746;2023-11-19T14:15:34;32.73;;;8.10;;
13327;SDS011;6733;51.044;3.746;2023-11-19T14:18:01;24.90;;;7.60;;
13327;SDS011;6733;51.044;3.746;2023-11-19T14:20:31;22.47;;;6.43;;
13327;SDS011;6733;51.044;3.746;2023-11-19T14:22:57;25.30;;;6.90;;
13327;SDS011;6733;51.044;3.746;2023-11-19T14:25:23;24.13;;;6.73;;
13327;SDS011;6733;51.044;3.746;2023-11-19T14:27:49;20.43;;;6.70;;
13327;SDS011;6733;51.044;3.746;2023-11-19T14:30:16;26.43;;;7.17;;
13327;SDS011;6733;51.044;3.746;2023-11-19T14:32:42;23.23;;;7.20;;
13327;SDS011;6733;51.044;3.746;2023-11-19T14:35:12;24.53;;;7.30;;
13327;SDS011;6733;51.044;3.746;2023-11-19T14:37:38;22.20;;;6.47;;
13327;SDS011;6733;51.044;3.746;2023-11-19T14:40:05;28.40;;;7.60;;
13327;SDS011;6733;51.044;3.746;2023-11-19T14:42:35;27.07;;;7.20;;
13327;SDS011;6733;51.044;3.746;2023-11-19T14:45:02;23.53;;;6.23;;
13327;SDS011;6733;51.044;3.746;2023-11-19T14:47:30;26.03;;;6.77;;
13327;SDS011;6733;51.044;3.746;2023-11-19T14:49:56;33.27;;;7.50;;
13327;SDS011;6733;51.044;3.746;2023-11-19T14:52:22;26.97;;;6.53;;
13327;SDS011;6733;51.044;3.746;2023-11-19T14:54:48;31.87;;;6.83;;
13327;SDS011;6733;51.044;3.746;2023-11-19T14:57:19;28.17;;;6.80;;
13327;SDS011;6733;51.044;3.746;2023-11-19T14:59:45;29.43;;;8.00;;
13327;SDS011;6733;51.044;3.746;2023-11-19T15:02:12;28.23;;;7.27;;
13327;SDS011;6733;51.044;3.746;2023-11-19T15:04:38;28.17;;;7.13;;
13327;SDS011;6733;51.044;3.746;2023-11-19T15:07:05;18.23;;;6.03;;